Capitol Logistics 106


KSEA
Seattle-Tacoma International Airport
Seattle, Washington, US
PANC
Ted Stevens Anchorage International Airport
Anchorage, Alaska, US

Route Details

Aircraft Information
Primary: Boeing 747-400BCF
Backup: Boeing 777-200LRF
Route Data
Distance: 1257nm
Sched. Duration: 3h 45m
Avg. Duration: 3h 24m (-20m)
Times Flown: 10
Recm'd Route: BANGR9 ARRIE FOCHE PRYCE BKA LAIRE JOH WITTI4
Planned Altitude: 34,000ft
Origin Wx: KSEA 260553Z 04008KT 10SM CLR 04/M02 A3052 RMK AO2 SLP346 T00391022 10083 20033 58003 $
Dest. Wx: PANC 260553Z 01009G16KT 6SM RA BR BKN005 BKN012 OVC025 02/00 A2938 RMK AO2 SLP950 P0007 60045 T00170000 10028 20011 56070 $
Notes:

Financial History
Total Freight: 1,174,602lbs
Average Load: 117,460lbs/flt
Fuel Used: 439,212lbs
Avg. Fuel Used: 43,921lbs/flt
Fuel Expense: $491,917
Avg. Fuel Expense: $49,192
Avg. Fuel Cost: $1.12/lbs
Total Gross Income: $1,534,810
Pilot Pay: $1,770
Total Expenses: $166,280
Total Revenue: $870,390
Average Revenue: $153,481.03